sensor_id;sensor_type;location;lat;lon;timestamp;P1;durP1;ratioP1;P2;durP2;ratioP2
13439;SDS011;6792;57.698;11.946;2023-01-19T00:01:45;4.23;;;2.50;;
13439;SDS011;6792;57.698;11.946;2023-01-19T00:04:14;6.60;;;2.50;;
13439;SDS011;6792;57.698;11.946;2023-01-19T00:06:43;7.23;;;2.70;;
13439;SDS011;6792;57.698;11.946;2023-01-19T00:09:12;4.37;;;2.30;;
13439;SDS011;6792;57.698;11.946;2023-01-19T00:11:43;4.77;;;2.10;;
13439;SDS011;6792;57.698;11.946;2023-01-19T00:14:16;5.90;;;2.80;;
13439;SDS011;6792;57.698;11.946;2023-01-19T00:16:45;5.53;;;2.63;;
13439;SDS011;6792;57.698;11.946;2023-01-19T00:19:14;7.53;;;2.90;;
13439;SDS011;6792;57.698;11.946;2023-01-19T00:21:43;4.47;;;2.70;;
13439;SDS011;6792;57.698;11.946;2023-01-19T00:24:13;5.80;;;2.80;;
13439;SDS011;6792;57.698;11.946;2023-01-19T00:26:42;5.80;;;2.90;;
13439;SDS011;6792;57.698;11.946;2023-01-19T00:29:13;5.50;;;2.73;;
13439;SDS011;6792;57.698;11.946;2023-01-19T00:31:42;6.90;;;2.83;;
13439;SDS011;6792;57.698;11.946;2023-01-19T00:34:11;6.07;;;3.23;;
13439;SDS011;6792;57.698;11.946;2023-01-19T00:36:40;6.70;;;3.00;;
13439;SDS011;6792;57.698;11.946;2023-01-19T00:39:12;7.77;;;2.93;;
13439;SDS011;6792;57.698;11.946;2023-01-19T00:41:45;4.43;;;2.80;;
13439;SDS011;6792;57.698;11.946;2023-01-19T00:44:34;9.10;;;3.13;;
13439;SDS011;6792;57.698;11.946;2023-01-19T00:47:03;4.33;;;3.27;;
13439;SDS011;6792;57.698;11.946;2023-01-19T00:49:36;7.77;;;2.87;;
13439;SDS011;6792;57.698;11.946;2023-01-19T00:52:06;7.23;;;3.03;;
13439;SDS011;6792;57.698;11.946;2023-01-19T00:54:35;11.77;;;3.17;;
13439;SDS011;6792;57.698;11.946;2023-01-19T00:57:04;10.53;;;3.20;;
13439;SDS011;6792;57.698;11.946;2023-01-19T00:59:33;5.23;;;3.17;;
13439;SDS011;6792;57.698;11.946;2023-01-19T01:02:02;7.47;;;3.27;;
13439;SDS011;6792;57.698;11.946;2023-01-19T01:04:31;6.07;;;3.43;;
13439;SDS011;6792;57.698;11.946;2023-01-19T01:07:00;6.33;;;3.27;;
13439;SDS011;6792;57.698;11.946;2023-01-19T01:09:30;6.20;;;3.10;;
13439;SDS011;6792;57.698;11.946;2023-01-19T01:11:59;8.93;;;3.67;;
13439;SDS011;6792;57.698;11.946;2023-01-19T01:14:28;5.17;;;3.37;;
13439;SDS011;6792;57.698;11.946;2023-01-19T01:16:57;6.97;;;3.73;;
13439;SDS011;6792;57.698;11.946;2023-01-19T01:19:26;12.23;;;3.70;;
13439;SDS011;6792;57.698;11.946;2023-01-19T01:21:55;7.63;;;3.50;;
13439;SDS011;6792;57.698;11.946;2023-01-19T01:24:24;5.63;;;3.87;;
13439;SDS011;6792;57.698;11.946;2023-01-19T01:26:53;10.83;;;4.33;;
13439;SDS011;6792;57.698;11.946;2023-01-19T01:29:26;5.57;;;3.53;;
13439;SDS011;6792;57.698;11.946;2023-01-19T01:31:55;9.90;;;4.20;;
13439;SDS011;6792;57.698;11.946;2023-01-19T01:34:25;6.87;;;4.60;;
13439;SDS011;6792;57.698;11.946;2023-01-19T01:36:54;6.43;;;3.83;;
13439;SDS011;6792;57.698;11.946;2023-01-19T01:39:23;11.90;;;4.67;;
13439;SDS011;6792;57.698;11.946;2023-01-19T01:41:55;8.73;;;3.90;;
13439;SDS011;6792;57.698;11.946;2023-01-19T01:44:51;7.47;;;4.30;;
13439;SDS011;6792;57.698;11.946;2023-01-19T01:47:31;8.60;;;4.20;;
13439;SDS011;6792;57.698;11.946;2023-01-19T01:50:07;9.43;;;4.60;;
13439;SDS011;6792;57.698;11.946;2023-01-19T01:52:42;8.43;;;4.00;;
13439;SDS011;6792;57.698;11.946;2023-01-19T01:55:12;9.17;;;4.13;;
13439;SDS011;6792;57.698;11.946;2023-01-19T01:57:45;9.97;;;3.70;;
13439;SDS011;6792;57.698;11.946;2023-01-19T02:00:16;7.33;;;4.07;;
13439;SDS011;6792;57.698;11.946;2023-01-19T02:02:45;6.93;;;4.40;;
13439;SDS011;6792;57.698;11.946;2023-01-19T02:05:21;9.07;;;4.77;;
13439;SDS011;6792;57.698;11.946;2023-01-19T02:07:53;7.17;;;3.90;;
13439;SDS011;6792;57.698;11.946;2023-01-19T02:10:42;8.37;;;3.97;;
13439;SDS011;6792;57.698;11.946;2023-01-19T02:13:31;8.73;;;3.73;;
13439;SDS011;6792;57.698;11.946;2023-01-19T02:16:04;8.13;;;4.60;;
13439;SDS011;6792;57.698;11.946;2023-01-19T02:18:35;9.47;;;4.17;;
13439;SDS011;6792;57.698;11.946;2023-01-19T02:21:10;10.17;;;4.50;;
13439;SDS011;6792;57.698;11.946;2023-01-19T02:23:45;11.10;;;4.30;;
13439;SDS011;6792;57.698;11.946;2023-01-19T02:26:17;8.10;;;4.87;;
13439;SDS011;6792;57.698;11.946;2023-01-19T02:28:52;11.43;;;4.90;;
13439;SDS011;6792;57.698;11.946;2023-01-19T02:31:24;7.97;;;4.83;;
13439;SDS011;6792;57.698;11.946;2023-01-19T02:33:55;12.13;;;4.60;;
13439;SDS011;6792;57.698;11.946;2023-01-19T02:36:26;10.73;;;4.73;;
13439;SDS011;6792;57.698;11.946;2023-01-19T02:38:57;9.83;;;5.27;;
13439;SDS011;6792;57.698;11.946;2023-01-19T02:41:27;11.13;;;4.90;;
13439;SDS011;6792;57.698;11.946;2023-01-19T02:43:59;8.63;;;5.27;;
13439;SDS011;6792;57.698;11.946;2023-01-19T02:46:29;8.77;;;5.03;;
13439;SDS011;6792;57.698;11.946;2023-01-19T02:48:59;9.67;;;5.13;;
13439;SDS011;6792;57.698;11.946;2023-01-19T02:51:28;8.83;;;5.17;;
13439;SDS011;6792;57.698;11.946;2023-01-19T02:54:01;9.47;;;5.57;;
13439;SDS011;6792;57.698;11.946;2023-01-19T03:00:03;10.67;;;5.33;;
13439;SDS011;6792;57.698;11.946;2023-01-19T03:02:38;9.10;;;4.73;;
13439;SDS011;6792;57.698;11.946;2023-01-19T03:05:16;9.33;;;5.37;;
13439;SDS011;6792;57.698;11.946;2023-01-19T03:07:55;17.43;;;5.70;;
13439;SDS011;6792;57.698;11.946;2023-01-19T03:10:29;10.27;;;5.47;;
13439;SDS011;6792;57.698;11.946;2023-01-19T03:13:02;14.83;;;5.40;;
13439;SDS011;6792;57.698;11.946;2023-01-19T03:15:34;9.70;;;4.97;;
13439;SDS011;6792;57.698;11.946;2023-01-19T03:18:05;10.07;;;5.43;;
13439;SDS011;6792;57.698;11.946;2023-01-19T03:20:39;15.03;;;5.60;;
13439;SDS011;6792;57.698;11.946;2023-01-19T03:23:13;9.23;;;5.73;;
13439;SDS011;6792;57.698;11.946;2023-01-19T03:25:44;11.70;;;6.10;;
13439;SDS011;6792;57.698;11.946;2023-01-19T03:28:16;10.40;;;5.90;;
13439;SDS011;6792;57.698;11.946;2023-01-19T03:30:49;12.07;;;5.50;;
13439;SDS011;6792;57.698;11.946;2023-01-19T03:33:22;12.20;;;6.03;;
13439;SDS011;6792;57.698;11.946;2023-01-19T03:35:55;8.73;;;5.47;;
13439;SDS011;6792;57.698;11.946;2023-01-19T03:38:26;13.73;;;5.50;;
13439;SDS011;6792;57.698;11.946;2023-01-19T03:41:01;8.83;;;5.67;;
13439;SDS011;6792;57.698;11.946;2023-01-19T03:43:33;9.83;;;6.30;;
13439;SDS011;6792;57.698;11.946;2023-01-19T03:46:04;8.40;;;5.70;;
13439;SDS011;6792;57.698;11.946;2023-01-19T03:48:36;15.30;;;5.97;;
13439;SDS011;6792;57.698;11.946;2023-01-19T03:51:07;12.43;;;6.30;;
13439;SDS011;6792;57.698;11.946;2023-01-19T03:53:39;11.43;;;6.17;;
13439;SDS011;6792;57.698;11.946;2023-01-19T03:56:09;15.43;;;6.50;;
13439;SDS011;6792;57.698;11.946;2023-01-19T03:58:44;12.77;;;6.50;;
13439;SDS011;6792;57.698;11.946;2023-01-19T04:01:14;12.73;;;6.50;;
13439;SDS011;6792;57.698;11.946;2023-01-19T04:03:46;11.60;;;6.47;;
13439;SDS011;6792;57.698;11.946;2023-01-19T04:06:15;11.10;;;6.23;;
13439;SDS011;6792;57.698;11.946;2023-01-19T04:08:47;10.97;;;6.23;;
13439;SDS011;6792;57.698;11.946;2023-01-19T04:11:23;11.27;;;5.77;;
13439;SDS011;6792;57.698;11.946;2023-01-19T04:13:59;11.40;;;6.63;;
13439;SDS011;6792;57.698;11.946;2023-01-19T04:16:35;12.37;;;6.77;;
13439;SDS011;6792;57.698;11.946;2023-01-19T04:35:07;11.07;;;6.80;;
13439;SDS011;6792;57.698;11.946;2023-01-19T04:37:37;12.27;;;6.17;;
13439;SDS011;6792;57.698;11.946;2023-01-19T04:40:08;13.20;;;7.60;;
13439;SDS011;6792;57.698;11.946;2023-01-19T04:42:42;9.00;;;6.10;;
13439;SDS011;6792;57.698;11.946;2023-01-19T04:45:12;11.00;;;6.60;;
13439;SDS011;6792;57.698;11.946;2023-01-19T04:47:42;11.80;;;6.70;;
13439;SDS011;6792;57.698;11.946;2023-01-19T04:50:11;11.00;;;6.80;;
13439;SDS011;6792;57.698;11.946;2023-01-19T04:52:40;15.03;;;7.03;;
13439;SDS011;6792;57.698;11.946;2023-01-19T04:55:12;14.10;;;6.63;;
13439;SDS011;6792;57.698;11.946;2023-01-19T04:57:44;13.30;;;6.83;;
13439;SDS011;6792;57.698;11.946;2023-01-19T05:00:15;16.13;;;6.90;;
13439;SDS011;6792;57.698;11.946;2023-01-19T05:02:46;11.27;;;6.73;;
13439;SDS011;6792;57.698;11.946;2023-01-19T05:05:15;9.23;;;6.70;;
13439;SDS011;6792;57.698;11.946;2023-01-19T05:07:46;13.23;;;7.23;;
13439;SDS011;6792;57.698;11.946;2023-01-19T05:10:15;14.20;;;7.60;;
13439;SDS011;6792;57.698;11.946;2023-01-19T05:12:45;12.57;;;6.17;;
13439;SDS011;6792;57.698;11.946;2023-01-19T05:15:14;12.23;;;6.00;;
13439;SDS011;6792;57.698;11.946;2023-01-19T05:17:44;12.30;;;6.40;;
13439;SDS011;6792;57.698;11.946;2023-01-19T05:20:13;13.13;;;6.73;;
13439;SDS011;6792;57.698;11.946;2023-01-19T05:22:45;12.67;;;7.00;;
13439;SDS011;6792;57.698;11.946;2023-01-19T05:25:16;10.87;;;6.40;;
13439;SDS011;6792;57.698;11.946;2023-01-19T05:27:46;9.93;;;5.67;;
13439;SDS011;6792;57.698;11.946;2023-01-19T05:30:15;10.77;;;6.30;;
13439;SDS011;6792;57.698;11.946;2023-01-19T05:32:47;10.73;;;5.87;;
13439;SDS011;6792;57.698;11.946;2023-01-19T05:35:16;10.13;;;5.93;;
13439;SDS011;6792;57.698;11.946;2023-01-19T05:37:46;13.40;;;6.50;;
13439;SDS011;6792;57.698;11.946;2023-01-19T05:40:15;11.93;;;6.60;;
13439;SDS011;6792;57.698;11.946;2023-01-19T05:42:44;11.77;;;6.20;;
13439;SDS011;6792;57.698;11.946;2023-01-19T05:45:13;11.77;;;6.53;;
13439;SDS011;6792;57.698;11.946;2023-01-19T05:47:43;12.80;;;6.27;;
13439;SDS011;6792;57.698;11.946;2023-01-19T05:50:18;13.90;;;5.97;;
13439;SDS011;6792;57.698;11.946;2023-01-19T05:52:47;11.10;;;5.80;;
13439;SDS011;6792;57.698;11.946;2023-01-19T05:55:18;8.90;;;5.83;;
13439;SDS011;6792;57.698;11.946;2023-01-19T05:57:49;10.10;;;5.90;;
13439;SDS011;6792;57.698;11.946;2023-01-19T06:00:19;9.57;;;5.50;;
13439;SDS011;6792;57.698;11.946;2023-01-19T06:02:50;9.30;;;6.27;;
13439;SDS011;6792;57.698;11.946;2023-01-19T06:05:19;11.83;;;6.57;;
13439;SDS011;6792;57.698;11.946;2023-01-19T06:07:49;12.23;;;6.93;;
13439;SDS011;6792;57.698;11.946;2023-01-19T06:10:19;14.07;;;5.97;;
13439;SDS011;6792;57.698;11.946;2023-01-19T06:12:48;12.20;;;5.77;;
13439;SDS011;6792;57.698;11.946;2023-01-19T06:15:19;8.50;;;5.67;;
13439;SDS011;6792;57.698;11.946;2023-01-19T06:17:48;9.93;;;5.77;;
13439;SDS011;6792;57.698;11.946;2023-01-19T06:20:18;9.83;;;5.47;;
13439;SDS011;6792;57.698;11.946;2023-01-19T06:22:47;9.00;;;5.30;;
13439;SDS011;6792;57.698;11.946;2023-01-19T06:25:16;10.23;;;5.70;;
13439;SDS011;6792;57.698;11.946;2023-01-19T06:27:45;10.33;;;5.73;;
13439;SDS011;6792;57.698;11.946;2023-01-19T06:30:16;10.20;;;6.10;;
13439;SDS011;6792;57.698;11.946;2023-01-19T06:32:45;12.23;;;5.17;;
13439;SDS011;6792;57.698;11.946;2023-01-19T06:35:15;8.53;;;5.50;;
13439;SDS011;6792;57.698;11.946;2023-01-19T06:37:44;9.43;;;6.13;;
13439;SDS011;6792;57.698;11.946;2023-01-19T06:40:15;11.70;;;6.33;;
13439;SDS011;6792;57.698;11.946;2023-01-19T06:42:44;9.90;;;5.60;;
13439;SDS011;6792;57.698;11.946;2023-01-19T06:45:15;8.20;;;5.73;;
13439;SDS011;6792;57.698;11.946;2023-01-19T06:47:46;10.90;;;5.93;;
13439;SDS011;6792;57.698;11.946;2023-01-19T06:50:17;12.73;;;6.00;;
13439;SDS011;6792;57.698;11.946;2023-01-19T06:52:48;11.10;;;6.03;;
13439;SDS011;6792;57.698;11.946;2023-01-19T06:55:19;11.40;;;5.43;;
13439;SDS011;6792;57.698;11.946;2023-01-19T06:57:55;10.10;;;5.00;;
13439;SDS011;6792;57.698;11.946;2023-01-19T07:00:25;7.80;;;5.27;;
13439;SDS011;6792;57.698;11.946;2023-01-19T07:02:55;8.67;;;5.50;;
13439;SDS011;6792;57.698;11.946;2023-01-19T07:05:24;9.97;;;5.23;;
13439;SDS011;6792;57.698;11.946;2023-01-19T07:07:53;8.90;;;5.17;;
13439;SDS011;6792;57.698;11.946;2023-01-19T07:10:23;9.00;;;4.83;;
13439;SDS011;6792;57.698;11.946;2023-01-19T07:12:52;8.73;;;5.20;;
13439;SDS011;6792;57.698;11.946;2023-01-19T07:15:24;8.77;;;5.13;;
13439;SDS011;6792;57.698;11.946;2023-01-19T07:17:55;10.93;;;5.77;;
13439;SDS011;6792;57.698;11.946;2023-01-19T07:20:24;10.43;;;5.30;;
13439;SDS011;6792;57.698;11.946;2023-01-19T07:22:54;7.90;;;5.40;;
13439;SDS011;6792;57.698;11.946;2023-01-19T07:25:24;12.37;;;5.73;;
13439;SDS011;6792;57.698;11.946;2023-01-19T07:27:55;12.53;;;5.23;;
13439;SDS011;6792;57.698;11.946;2023-01-19T07:30:25;7.80;;;5.03;;
13439;SDS011;6792;57.698;11.946;2023-01-19T07:32:55;7.73;;;5.33;;
13439;SDS011;6792;57.698;11.946;2023-01-19T07:35:24;8.50;;;5.50;;
13439;SDS011;6792;57.698;11.946;2023-01-19T07:37:55;10.67;;;5.60;;
13439;SDS011;6792;57.698;11.946;2023-01-19T07:40:27;10.27;;;5.30;;
13439;SDS011;6792;57.698;11.946;2023-01-19T07:42:59;9.10;;;5.13;;
13439;SDS011;6792;57.698;11.946;2023-01-19T07:45:28;9.17;;;5.23;;
13439;SDS011;6792;57.698;11.946;2023-01-19T07:47:57;12.93;;;5.80;;
13439;SDS011;6792;57.698;11.946;2023-01-19T07:50:26;8.97;;;5.57;;
13439;SDS011;6792;57.698;11.946;2023-01-19T07:52:55;10.53;;;5.60;;
13439;SDS011;6792;57.698;11.946;2023-01-19T07:55:26;8.77;;;5.30;;
13439;SDS011;6792;57.698;11.946;2023-01-19T07:57:55;13.80;;;5.70;;
13439;SDS011;6792;57.698;11.946;2023-01-19T08:00:24;14.93;;;5.53;;
13439;SDS011;6792;57.698;11.946;2023-01-19T08:02:57;9.13;;;5.73;;
13439;SDS011;6792;57.698;11.946;2023-01-19T08:05:26;10.27;;;5.20;;
13439;SDS011;6792;57.698;11.946;2023-01-19T08:07:56;7.50;;;4.90;;
13439;SDS011;6792;57.698;11.946;2023-01-19T08:10:26;8.53;;;4.87;;
13439;SDS011;6792;57.698;11.946;2023-01-19T08:12:56;14.10;;;5.23;;
13439;SDS011;6792;57.698;11.946;2023-01-19T08:15:25;7.90;;;4.77;;
13439;SDS011;6792;57.698;11.946;2023-01-19T08:17:55;8.10;;;5.80;;
13439;SDS011;6792;57.698;11.946;2023-01-19T08:20:25;9.40;;;4.93;;
13439;SDS011;6792;57.698;11.946;2023-01-19T08:22:55;8.53;;;4.60;;
13439;SDS011;6792;57.698;11.946;2023-01-19T08:25:30;10.37;;;5.37;;
13439;SDS011;6792;57.698;11.946;2023-01-19T08:27:59;8.63;;;4.63;;
13439;SDS011;6792;57.698;11.946;2023-01-19T08:30:28;8.50;;;4.80;;
13439;SDS011;6792;57.698;11.946;2023-01-19T08:32:58;10.83;;;5.23;;
13439;SDS011;6792;57.698;11.946;2023-01-19T08:35:29;12.63;;;5.10;;
13439;SDS011;6792;57.698;11.946;2023-01-19T08:37:59;9.17;;;4.27;;
13439;SDS011;6792;57.698;11.946;2023-01-19T08:40:28;10.13;;;4.17;;
13439;SDS011;6792;57.698;11.946;2023-01-19T08:42:59;9.67;;;5.00;;
13439;SDS011;6792;57.698;11.946;2023-01-19T08:45:31;7.60;;;4.57;;
13439;SDS011;6792;57.698;11.946;2023-01-19T08:48:00;9.07;;;4.70;;
13439;SDS011;6792;57.698;11.946;2023-01-19T08:50:30;8.90;;;4.57;;
13439;SDS011;6792;57.698;11.946;2023-01-19T08:53:02;7.50;;;4.07;;
13439;SDS011;6792;57.698;11.946;2023-01-19T08:55:34;10.83;;;4.57;;
13439;SDS011;6792;57.698;11.946;2023-01-19T08:58:09;8.60;;;4.43;;
13439;SDS011;6792;57.698;11.946;2023-01-19T09:00:40;10.03;;;4.90;;
13439;SDS011;6792;57.698;11.946;2023-01-19T09:03:10;9.47;;;5.20;;
13439;SDS011;6792;57.698;11.946;2023-01-19T09:05:39;11.07;;;5.27;;
13439;SDS011;6792;57.698;11.946;2023-01-19T09:08:11;7.50;;;5.20;;
13439;SDS011;6792;57.698;11.946;2023-01-19T09:10:44;10.37;;;5.00;;
13439;SDS011;6792;57.698;11.946;2023-01-19T09:13:14;7.90;;;4.97;;
13439;SDS011;6792;57.698;11.946;2023-01-19T09:15:44;8.60;;;4.47;;
13439;SDS011;6792;57.698;11.946;2023-01-19T09:18:14;10.13;;;5.03;;
13439;SDS011;6792;57.698;11.946;2023-01-19T09:20:44;9.83;;;5.17;;
13439;SDS011;6792;57.698;11.946;2023-01-19T09:23:15;7.80;;;4.50;;
13439;SDS011;6792;57.698;11.946;2023-01-19T09:25:45;7.83;;;4.63;;
13439;SDS011;6792;57.698;11.946;2023-01-19T09:28:15;7.77;;;4.37;;
13439;SDS011;6792;57.698;11.946;2023-01-19T09:30:47;7.70;;;5.07;;
13439;SDS011;6792;57.698;11.946;2023-01-19T09:33:17;10.67;;;4.57;;
13439;SDS011;6792;57.698;11.946;2023-01-19T09:35:49;7.83;;;4.93;;
13439;SDS011;6792;57.698;11.946;2023-01-19T09:38:19;5.67;;;4.40;;
13439;SDS011;6792;57.698;11.946;2023-01-19T09:40:50;11.10;;;5.10;;
13439;SDS011;6792;57.698;11.946;2023-01-19T09:43:26;9.27;;;4.87;;
13439;SDS011;6792;57.698;11.946;2023-01-19T09:46:04;9.70;;;5.03;;
13439;SDS011;6792;57.698;11.946;2023-01-19T09:48:44;6.10;;;4.23;;
13439;SDS011;6792;57.698;11.946;2023-01-19T09:51:16;10.27;;;4.77;;
13439;SDS011;6792;57.698;11.946;2023-01-19T09:53:51;10.80;;;4.80;;
13439;SDS011;6792;57.698;11.946;2023-01-19T09:56:27;8.87;;;4.93;;
13439;SDS011;6792;57.698;11.946;2023-01-19T09:58:58;7.53;;;4.90;;
13439;SDS011;6792;57.698;11.946;2023-01-19T10:01:42;9.70;;;5.53;;
13439;SDS011;6792;57.698;11.946;2023-01-19T10:04:26;10.23;;;5.47;;
13439;SDS011;6792;57.698;11.946;2023-01-19T10:07:11;8.13;;;5.00;;
13439;SDS011;6792;57.698;11.946;2023-01-19T10:09:50;9.43;;;6.20;;
13439;SDS011;6792;57.698;11.946;2023-01-19T10:12:29;9.87;;;5.90;;
13439;SDS011;6792;57.698;11.946;2023-01-19T10:15:03;9.40;;;5.23;;
13439;SDS011;6792;57.698;11.946;2023-01-19T10:17:41;9.17;;;5.30;;
13439;SDS011;6792;57.698;11.946;2023-01-19T10:20:20;8.80;;;5.27;;
13439;SDS011;6792;57.698;11.946;2023-01-19T10:22:55;8.47;;;5.17;;
13439;SDS011;6792;57.698;11.946;2023-01-19T10:25:27;10.27;;;6.20;;
13439;SDS011;6792;57.698;11.946;2023-01-19T10:28:06;10.37;;;6.20;;
13439;SDS011;6792;57.698;11.946;2023-01-19T10:30:43;10.83;;;5.90;;
13439;SDS011;6792;57.698;11.946;2023-01-19T10:33:22;8.23;;;6.23;;
13439;SDS011;6792;57.698;11.946;2023-01-19T10:35:52;9.80;;;5.67;;
13439;SDS011;6792;57.698;11.946;2023-01-19T10:38:25;9.83;;;5.17;;
13439;SDS011;6792;57.698;11.946;2023-01-19T10:40:59;10.83;;;6.43;;
13439;SDS011;6792;57.698;11.946;2023-01-19T10:43:46;11.00;;;6.20;;
13439;SDS011;6792;57.698;11.946;2023-01-19T10:46:25;10.77;;;6.30;;
13439;SDS011;6792;57.698;11.946;2023-01-19T10:48:57;12.03;;;6.17;;
13439;SDS011;6792;57.698;11.946;2023-01-19T10:51:26;9.97;;;6.17;;
13439;SDS011;6792;57.698;11.946;2023-01-19T10:53:56;9.37;;;6.30;;
13439;SDS011;6792;57.698;11.946;2023-01-19T10:56:29;11.77;;;6.53;;
13439;SDS011;6792;57.698;11.946;2023-01-19T10:59:01;13.00;;;7.17;;
13439;SDS011;6792;57.698;11.946;2023-01-19T11:01:32;8.93;;;6.70;;
13439;SDS011;6792;57.698;11.946;2023-01-19T11:04:18;11.93;;;7.03;;
13439;SDS011;6792;57.698;11.946;2023-01-19T11:06:50;11.60;;;6.27;;
13439;SDS011;6792;57.698;11.946;2023-01-19T11:09:19;15.63;;;7.80;;
13439;SDS011;6792;57.698;11.946;2023-01-19T11:11:49;10.53;;;7.00;;
13439;SDS011;6792;57.698;11.946;2023-01-19T11:14:20;10.03;;;6.13;;
13439;SDS011;6792;57.698;11.946;2023-01-19T11:16:51;11.93;;;7.73;;
13439;SDS011;6792;57.698;11.946;2023-01-19T11:19:26;13.17;;;7.03;;
13439;SDS011;6792;57.698;11.946;2023-01-19T11:22:10;10.93;;;7.27;;
13439;SDS011;6792;57.698;11.946;2023-01-19T11:24:50;12.87;;;7.63;;
13439;SDS011;6792;57.698;11.946;2023-01-19T11:27:21;12.70;;;7.40;;
13439;SDS011;6792;57.698;11.946;2023-01-19T11:29:51;12.23;;;7.00;;
13439;SDS011;6792;57.698;11.946;2023-01-19T11:32:22;11.13;;;7.00;;
13439;SDS011;6792;57.698;11.946;2023-01-19T11:34:53;11.40;;;7.00;;
13439;SDS011;6792;57.698;11.946;2023-01-19T11:37:25;13.03;;;7.57;;
13439;SDS011;6792;57.698;11.946;2023-01-19T11:39:58;12.63;;;7.37;;
13439;SDS011;6792;57.698;11.946;2023-01-19T11:42:30;11.90;;;7.10;;
13439;SDS011;6792;57.698;11.946;2023-01-19T11:45:03;14.73;;;7.93;;
13439;SDS011;6792;57.698;11.946;2023-01-19T11:47:45;11.57;;;7.33;;
13439;SDS011;6792;57.698;11.946;2023-01-19T11:50:27;11.53;;;7.37;;
13439;SDS011;6792;57.698;11.946;2023-01-19T11:52:59;14.17;;;6.73;;
13439;SDS011;6792;57.698;11.946;2023-01-19T11:55:32;11.40;;;6.97;;
13439;SDS011;6792;57.698;11.946;2023-01-19T11:58:04;11.03;;;7.13;;
13439;SDS011;6792;57.698;11.946;2023-01-19T12:00:36;13.60;;;7.53;;
13439;SDS011;6792;57.698;11.946;2023-01-19T12:03:12;14.17;;;7.80;;
13439;SDS011;6792;57.698;11.946;2023-01-19T12:05:45;12.07;;;7.03;;
13439;SDS011;6792;57.698;11.946;2023-01-19T12:08:18;11.10;;;6.40;;
13439;SDS011;6792;57.698;11.946;2023-01-19T12:10:49;11.43;;;7.23;;
13439;SDS011;6792;57.698;11.946;2023-01-19T12:13:22;12.07;;;6.53;;
13439;SDS011;6792;57.698;11.946;2023-01-19T12:15:53;12.53;;;6.63;;
13439;SDS011;6792;57.698;11.946;2023-01-19T12:18:26;12.17;;;6.60;;
13439;SDS011;6792;57.698;11.946;2023-01-19T12:21:00;9.70;;;6.63;;
13439;SDS011;6792;57.698;11.946;2023-01-19T12:23:33;11.47;;;6.83;;
13439;SDS011;6792;57.698;11.946;2023-01-19T12:26:13;11.97;;;6.73;;
13439;SDS011;6792;57.698;11.946;2023-01-19T12:29:04;10.87;;;6.27;;
13439;SDS011;6792;57.698;11.946;2023-01-19T12:31:35;10.80;;;6.93;;
13439;SDS011;6792;57.698;11.946;2023-01-19T12:34:26;10.23;;;5.80;;
13439;SDS011;6792;57.698;11.946;2023-01-19T12:36:59;11.13;;;6.70;;
13439;SDS011;6792;57.698;11.946;2023-01-19T12:39:30;10.27;;;7.00;;
13439;SDS011;6792;57.698;11.946;2023-01-19T12:42:05;10.67;;;6.67;;
13439;SDS011;6792;57.698;11.946;2023-01-19T12:44:42;10.43;;;6.53;;
13439;SDS011;6792;57.698;11.946;2023-01-19T12:47:19;11.20;;;6.57;;
13439;SDS011;6792;57.698;11.946;2023-01-19T12:49:52;9.80;;;6.93;;
13439;SDS011;6792;57.698;11.946;2023-01-19T12:52:42;10.47;;;6.43;;
13439;SDS011;6792;57.698;11.946;2023-01-19T12:55:19;12.37;;;6.83;;
13439;SDS011;6792;57.698;11.946;2023-01-19T12:57:51;11.47;;;6.40;;
13439;SDS011;6792;57.698;11.946;2023-01-19T13:00:31;11.67;;;6.70;;
13439;SDS011;6792;57.698;11.946;2023-01-19T13:06:12;9.57;;;6.33;;
13439;SDS011;6792;57.698;11.946;2023-01-19T13:14:50;9.60;;;6.77;;
13439;SDS011;6792;57.698;11.946;2023-01-19T13:17:44;8.13;;;6.00;;
13439;SDS011;6792;57.698;11.946;2023-01-19T13:20:23;10.03;;;6.40;;
13439;SDS011;6792;57.698;11.946;2023-01-19T13:25:58;8.13;;;5.90;;
13439;SDS011;6792;57.698;11.946;2023-01-19T13:28:31;9.23;;;6.67;;
13439;SDS011;6792;57.698;11.946;2023-01-19T13:31:04;10.37;;;6.63;;
13439;SDS011;6792;57.698;11.946;2023-01-19T13:33:38;10.53;;;6.47;;
13439;SDS011;6792;57.698;11.946;2023-01-19T13:36:19;11.13;;;7.03;;
13439;SDS011;6792;57.698;11.946;2023-01-19T13:38:52;17.60;;;9.90;;
13439;SDS011;6792;57.698;11.946;2023-01-19T13:41:23;11.43;;;7.13;;
13439;SDS011;6792;57.698;11.946;2023-01-19T13:43:57;10.20;;;7.13;;
13439;SDS011;6792;57.698;11.946;2023-01-19T13:46:28;9.00;;;5.97;;
13439;SDS011;6792;57.698;11.946;2023-01-19T13:49:04;10.33;;;6.47;;
13439;SDS011;6792;57.698;11.946;2023-01-19T13:51:38;10.30;;;7.10;;
13439;SDS011;6792;57.698;11.946;2023-01-19T13:54:13;11.47;;;6.83;;
13439;SDS011;6792;57.698;11.946;2023-01-19T13:56:46;10.90;;;6.70;;
13439;SDS011;6792;57.698;11.946;2023-01-19T13:59:17;10.43;;;6.80;;
13439;SDS011;6792;57.698;11.946;2023-01-19T14:01:46;11.23;;;7.77;;
13439;SDS011;6792;57.698;11.946;2023-01-19T14:04:24;11.93;;;7.00;;
13439;SDS011;6792;57.698;11.946;2023-01-19T14:06:56;11.93;;;7.57;;
13439;SDS011;6792;57.698;11.946;2023-01-19T14:09:27;10.83;;;6.63;;
13439;SDS011;6792;57.698;11.946;2023-01-19T14:12:04;14.83;;;6.80;;
13439;SDS011;6792;57.698;11.946;2023-01-19T14:14:36;11.80;;;6.70;;
13439;SDS011;6792;57.698;11.946;2023-01-19T14:17:22;12.27;;;6.83;;
13439;SDS011;6792;57.698;11.946;2023-01-19T14:19:52;10.77;;;7.03;;
13439;SDS011;6792;57.698;11.946;2023-01-19T14:22:36;10.33;;;6.83;;
13439;SDS011;6792;57.698;11.946;2023-01-19T14:25:26;12.20;;;6.90;;
13439;SDS011;6792;57.698;11.946;2023-01-19T14:30:56;12.00;;;7.27;;
13439;SDS011;6792;57.698;11.946;2023-01-19T14:33:32;9.97;;;6.70;;
13439;SDS011;6792;57.698;11.946;2023-01-19T14:36:09;9.97;;;6.80;;
13439;SDS011;6792;57.698;11.946;2023-01-19T14:38:44;8.67;;;6.40;;
13439;SDS011;6792;57.698;11.946;2023-01-19T14:41:24;13.00;;;7.70;;
13439;SDS011;6792;57.698;11.946;2023-01-19T14:43:56;8.90;;;6.03;;
13439;SDS011;6792;57.698;11.946;2023-01-19T14:46:26;12.03;;;6.90;;
13439;SDS011;6792;57.698;11.946;2023-01-19T14:48:57;11.37;;;7.17;;
13439;SDS011;6792;57.698;11.946;2023-01-19T14:51:31;11.03;;;7.47;;
13439;SDS011;6792;57.698;11.946;2023-01-19T14:54:01;11.43;;;7.33;;
13439;SDS011;6792;57.698;11.946;2023-01-19T14:56:31;12.07;;;7.20;;
13439;SDS011;6792;57.698;11.946;2023-01-19T14:59:06;10.20;;;7.10;;
13439;SDS011;6792;57.698;11.946;2023-01-19T15:01:37;10.97;;;6.80;;
13439;SDS011;6792;57.698;11.946;2023-01-19T15:04:10;11.13;;;6.70;;
13439;SDS011;6792;57.698;11.946;2023-01-19T15:06:39;12.40;;;6.60;;
13439;SDS011;6792;57.698;11.946;2023-01-19T15:09:12;11.80;;;6.40;;
13439;SDS011;6792;57.698;11.946;2023-01-19T15:11:42;11.60;;;7.07;;
13439;SDS011;6792;57.698;11.946;2023-01-19T15:14:13;10.40;;;6.70;;
13439;SDS011;6792;57.698;11.946;2023-01-19T15:16:46;10.67;;;6.43;;
13439;SDS011;6792;57.698;11.946;2023-01-19T15:19:16;9.40;;;6.90;;
13439;SDS011;6792;57.698;11.946;2023-01-19T15:21:45;10.30;;;6.20;;
13439;SDS011;6792;57.698;11.946;2023-01-19T15:24:14;8.07;;;5.93;;
13439;SDS011;6792;57.698;11.946;2023-01-19T15:26:43;11.60;;;6.60;;
13439;SDS011;6792;57.698;11.946;2023-01-19T15:29:20;8.43;;;6.13;;
13439;SDS011;6792;57.698;11.946;2023-01-19T15:31:51;9.77;;;6.43;;
13439;SDS011;6792;57.698;11.946;2023-01-19T15:34:20;8.73;;;6.33;;
13439;SDS011;6792;57.698;11.946;2023-01-19T15:36:49;10.13;;;6.10;;
13439;SDS011;6792;57.698;11.946;2023-01-19T15:39:18;8.90;;;6.13;;
13439;SDS011;6792;57.698;11.946;2023-01-19T15:41:48;8.20;;;5.93;;
13439;SDS011;6792;57.698;11.946;2023-01-19T15:44:17;10.03;;;6.07;;
13439;SDS011;6792;57.698;11.946;2023-01-19T15:46:46;10.00;;;6.00;;